createdAt,value
2023-04-09T00:01:04.329Z,5.63
2023-04-09T00:03:31.861Z,4.70
2023-04-09T00:06:01.198Z,6.10
2023-04-09T00:08:28.583Z,6.43
2023-04-09T00:10:57.312Z,6.68
2023-04-09T00:13:35.373Z,6.72
2023-04-09T00:16:06.471Z,5.75
2023-04-09T00:18:33.789Z,5.78
2023-04-09T00:21:02.613Z,5.90
2023-04-09T00:23:29.949Z,5.90
2023-04-09T00:25:57.451Z,5.95
2023-04-09T00:28:24.787Z,6.03
2023-04-09T00:30:52.073Z,5.47
2023-04-09T00:33:19.586Z,5.55
2023-04-09T00:35:47.029Z,5.43
2023-04-09T00:38:16.484Z,5.90
2023-04-09T00:40:44.175Z,5.43
2023-04-09T00:43:12.172Z,6.38
2023-04-09T00:45:39.769Z,5.80
2023-04-09T00:48:07.504Z,5.35
2023-04-09T00:50:34.863Z,5.68
2023-04-09T00:53:02.163Z,5.28
2023-04-09T00:55:31.601Z,6.00
2023-04-09T00:57:58.891Z,5.63
2023-04-09T01:00:27.774Z,5.60
2023-04-09T01:02:57.732Z,5.85
2023-04-09T01:05:31.499Z,5.63
2023-04-09T01:08:05.388Z,4.97
2023-04-09T01:10:38.472Z,6.05
2023-04-09T01:13:12.750Z,5.57
2023-04-09T01:15:47.323Z,4.95
2023-04-09T01:18:22.806Z,6.53
2023-04-09T01:20:57.196Z,6.00
2023-04-09T01:23:35.532Z,5.55
2023-04-09T01:26:11.000Z,6.03
2023-04-09T01:28:50.906Z,5.82
2023-04-09T01:31:20.453Z,5.78
2023-04-09T01:33:48.106Z,6.30
2023-04-09T01:36:16.659Z,5.97
2023-04-09T01:38:45.918Z,6.47
2023-04-09T01:41:17.532Z,5.93
2023-04-09T01:43:48.476Z,5.53
2023-04-09T01:46:16.800Z,5.85
2023-04-09T01:48:44.230Z,5.05
2023-04-09T01:51:14.246Z,5.38
2023-04-09T01:53:42.339Z,6.35
2023-04-09T01:56:10.208Z,4.15
2023-04-09T01:58:37.750Z,5.65
2023-04-09T02:01:12.897Z,6.60
2023-04-09T02:03:45.417Z,6.00
2023-04-09T02:06:16.280Z,5.53
2023-04-09T02:08:46.561Z,5.00
2023-04-09T02:11:15.396Z,5.88
2023-04-09T02:13:44.401Z,5.93
2023-04-09T02:16:34.180Z,5.47
2023-04-09T02:19:01.565Z,4.38
2023-04-09T02:21:29.753Z,5.68
2023-04-09T02:23:57.058Z,6.03
2023-04-09T02:26:25.111Z,6.68
2023-04-09T02:28:52.473Z,6.93
2023-04-09T02:31:19.809Z,4.03
2023-04-09T02:33:48.604Z,5.28
2023-04-09T02:36:16.205Z,4.60
2023-04-09T02:38:43.774Z,6.15
2023-04-09T02:41:11.286Z,6.35
2023-04-09T02:43:38.602Z,5.80
2023-04-09T02:46:07.868Z,6.68
2023-04-09T02:48:36.057Z,5.65
2023-04-09T02:51:08.204Z,6.28
2023-04-09T02:53:35.692Z,5.03
2023-04-09T02:56:03.028Z,5.88
2023-04-09T02:58:30.327Z,5.68
2023-04-09T03:00:57.569Z,5.25
2023-04-09T03:03:25.064Z,5.78
2023-04-09T03:05:52.477Z,6.70
2023-04-09T03:08:21.188Z,5.20
2023-04-09T03:10:48.652Z,6.22
2023-04-09T03:13:16.160Z,6.13
2023-04-09T03:15:43.719Z,5.88
2023-04-09T03:18:10.993Z,6.72
2023-04-09T03:20:39.339Z,6.43
2023-04-09T03:23:09.235Z,5.93
2023-04-09T03:25:42.788Z,5.63
2023-04-09T03:28:16.417Z,5.45
2023-04-09T03:30:50.700Z,5.72
2023-04-09T03:33:19.716Z,7.60
2023-04-09T03:35:53.645Z,6.03
2023-04-09T03:38:33.743Z,5.55
2023-04-09T03:41:07.197Z,5.28
2023-04-09T03:43:34.756Z,6.63
2023-04-09T03:46:02.356Z,7.97
2023-04-09T03:48:30.479Z,6.45
2023-04-09T03:50:58.704Z,5.93
2023-04-09T03:53:34.337Z,6.05
2023-04-09T03:56:07.699Z,6.85
2023-04-09T03:58:36.423Z,5.50
2023-04-09T04:01:04.183Z,5.13
2023-04-09T04:03:50.874Z,5.93
2023-04-09T04:06:22.430Z,6.43
2023-04-09T04:09:01.723Z,5.18
2023-04-09T04:11:41.407Z,5.80
2023-04-09T04:14:08.969Z,6.97
2023-04-09T04:16:36.324Z,6.03
2023-04-09T04:19:06.304Z,7.43
2023-04-09T04:21:40.858Z,5.38
2023-04-09T04:24:08.310Z,4.28
2023-04-09T04:26:35.752Z,4.45
2023-04-09T04:29:05.164Z,4.45
2023-04-09T04:31:44.943Z,5.10
2023-04-09T04:34:13.539Z,6.40
2023-04-09T04:36:43.349Z,5.82
2023-04-09T04:39:10.657Z,5.65
2023-04-09T04:44:23.878Z,7.65
2023-04-09T04:46:57.537Z,6.47
2023-04-09T04:49:24.912Z,3.72
2023-04-09T04:51:52.202Z,6.53
2023-04-09T04:54:19.779Z,6.50
2023-04-09T04:56:53.427Z,4.00
2023-04-09T04:59:42.517Z,7.72
2023-04-09T05:02:12.265Z,7.35
2023-04-09T05:04:51.788Z,5.22
2023-04-09T05:07:22.150Z,7.90
2023-04-09T05:09:53.477Z,5.28
2023-04-09T05:12:20.914Z,2.42
2023-04-09T05:14:53.238Z,6.13
2023-04-09T05:17:20.654Z,5.78
2023-04-09T05:19:51.795Z,6.57
2023-04-09T05:22:22.605Z,6.28
2023-04-09T05:24:50.013Z,4.78
2023-04-09T05:27:19.597Z,7.95
2023-04-09T05:29:49.373Z,5.28
2023-04-09T05:32:18.956Z,7.40
2023-04-09T05:34:46.932Z,6.45
2023-04-09T05:37:14.337Z,5.43
2023-04-09T05:39:46.085Z,5.72
2023-04-09T05:42:14.273Z,5.55
2023-04-09T05:44:52.399Z,5.22
2023-04-09T05:47:22.958Z,6.68
2023-04-09T05:50:01.951Z,7.50
2023-04-09T05:52:30.516Z,4.97
2023-04-09T05:54:58.356Z,6.55
2023-04-09T05:57:38.026Z,6.35
2023-04-09T06:00:06.784Z,4.63
2023-04-09T06:02:45.691Z,5.63
2023-04-09T06:05:13.226Z,8.38
2023-04-09T06:07:40.955Z,7.55
2023-04-09T06:10:09.307Z,7.70
2023-04-09T06:12:36.790Z,8.40
2023-04-09T06:15:05.015Z,7.32
2023-04-09T06:17:33.275Z,8.55
2023-04-09T06:20:02.120Z,7.97
2023-04-09T06:22:30.722Z,7.93
2023-04-09T06:24:58.038Z,7.90
2023-04-09T06:27:25.495Z,5.63
2023-04-09T06:29:53.040Z,7.88
2023-04-09T06:32:20.614Z,6.70
2023-04-09T06:34:48.501Z,4.97
2023-04-09T06:37:17.293Z,6.55
2023-04-09T06:39:50.676Z,8.40
2023-04-09T06:42:27.930Z,7.32
2023-04-09T06:45:17.319Z,7.30
2023-04-09T06:47:44.725Z,6.95
2023-04-09T06:50:14.407Z,7.43
2023-04-09T06:52:43.161Z,7.55
2023-04-09T06:55:11.636Z,7.45
2023-04-09T06:57:40.049Z,7.28
2023-04-09T07:00:08.665Z,7.28
2023-04-09T07:02:36.529Z,7.43
2023-04-09T07:05:04.496Z,5.45
2023-04-09T07:07:32.322Z,6.70
2023-04-09T07:10:01.858Z,5.05
2023-04-09T07:12:31.886Z,7.07
2023-04-09T07:14:59.528Z,6.78
2023-04-09T07:17:26.932Z,5.28
2023-04-09T07:19:54.633Z,6.65
2023-04-09T07:22:22.924Z,5.63
2023-04-09T07:24:54.435Z,6.63
2023-04-09T07:27:25.262Z,5.88
2023-04-09T07:29:55.180Z,6.72
2023-04-09T07:32:22.535Z,5.68
2023-04-09T07:34:51.660Z,5.95
2023-04-09T07:37:19.173Z,4.47
2023-04-09T07:39:46.892Z,4.32
2023-04-09T07:42:14.485Z,6.10
2023-04-09T07:44:44.030Z,5.22
2023-04-09T07:47:13.011Z,4.55
2023-04-09T07:49:40.497Z,5.20
2023-04-09T07:52:08.367Z,4.75
2023-04-09T07:54:35.962Z,5.22
2023-04-09T07:57:03.449Z,4.80
2023-04-09T07:59:31.785Z,4.90
2023-04-09T08:02:00.621Z,4.80
2023-04-09T08:04:28.414Z,5.32
2023-04-09T08:06:56.179Z,3.20
2023-04-09T08:09:23.408Z,4.35
2023-04-09T08:11:50.955Z,4.07
2023-04-09T08:14:18.766Z,2.92
2023-04-09T08:16:47.790Z,3.55
2023-04-09T08:19:17.948Z,5.85
2023-04-09T08:21:46.201Z,5.28
2023-04-09T08:24:13.645Z,5.82
2023-04-09T08:26:42.207Z,6.32
2023-04-09T08:29:11.752Z,4.65
2023-04-09T08:31:39.408Z,4.50
2023-04-09T08:34:07.393Z,5.07
2023-04-09T08:36:36.363Z,2.50
2023-04-09T08:39:04.098Z,3.88
2023-04-09T08:41:32.004Z,3.97
2023-04-09T08:43:59.936Z,3.95
2023-04-09T08:46:28.099Z,4.82
2023-04-09T08:48:56.333Z,4.30
2023-04-09T08:51:25.084Z,4.60
2023-04-09T08:53:57.391Z,4.30
2023-04-09T08:56:26.270Z,4.35
2023-04-09T08:58:54.150Z,3.80
2023-04-09T09:01:23.598Z,5.15
2023-04-09T09:03:59.212Z,3.47
2023-04-09T09:06:28.926Z,4.30
2023-04-09T09:09:06.278Z,5.20
2023-04-09T09:11:34.444Z,5.13
2023-04-09T09:14:03.658Z,4.18
2023-04-09T09:16:33.247Z,5.13
2023-04-09T09:19:01.311Z,4.55
2023-04-09T09:21:29.425Z,3.72
2023-04-09T09:23:57.649Z,5.53
2023-04-09T09:26:27.664Z,2.47
2023-04-09T09:28:56.203Z,4.95
2023-04-09T09:31:23.673Z,4.43
2023-04-09T09:33:51.825Z,4.30
2023-04-09T09:36:37.197Z,3.70
2023-04-09T09:41:34.065Z,6.10
2023-04-09T09:44:01.647Z,5.68
2023-04-09T09:46:34.453Z,4.47
2023-04-09T09:49:01.797Z,4.95
2023-04-09T09:51:29.377Z,5.15
2023-04-09T09:53:57.723Z,4.63
2023-04-09T09:56:32.723Z,5.20
2023-04-09T09:59:07.855Z,4.35
2023-04-09T10:01:36.860Z,4.90
2023-04-09T10:04:07.323Z,4.22
2023-04-09T10:06:35.077Z,5.40
2023-04-09T10:09:06.884Z,4.72
2023-04-09T10:11:36.904Z,6.18
2023-04-09T10:14:05.911Z,4.80
2023-04-09T10:16:33.447Z,4.72
2023-04-09T10:19:02.232Z,4.97
2023-04-09T10:21:36.982Z,4.95
2023-04-09T10:24:07.984Z,5.68
2023-04-09T10:26:36.579Z,4.65
2023-04-09T10:29:11.734Z,4.00
2023-04-09T10:31:53.678Z,5.28
2023-04-09T10:34:23.626Z,4.15
2023-04-09T10:36:53.624Z,5.25
2023-04-09T10:39:21.131Z,5.07
2023-04-09T10:41:50.078Z,5.32
2023-04-09T10:44:22.672Z,6.03
2023-04-09T10:46:51.478Z,4.65
2023-04-09T10:49:20.395Z,5.40
2023-04-09T10:51:54.751Z,4.55
2023-04-09T10:54:48.398Z,4.10
2023-04-09T10:57:18.304Z,5.00
2023-04-09T10:59:48.399Z,4.65
2023-04-09T11:02:56.706Z,6.45
2023-04-09T11:05:30.859Z,5.90
2023-04-09T11:08:07.399Z,4.43
2023-04-09T11:10:35.269Z,4.22
2023-04-09T11:13:03.394Z,4.72
2023-04-09T11:15:35.376Z,5.47
2023-04-09T11:18:03.467Z,4.28
2023-04-09T11:20:31.385Z,5.00
2023-04-09T11:23:00.541Z,4.95
2023-04-09T11:25:29.903Z,3.97
2023-04-09T11:27:57.960Z,5.22
2023-04-09T11:30:25.374Z,5.43
2023-04-09T11:32:54.228Z,4.95
2023-04-09T11:35:22.740Z,4.55
2023-04-09T11:37:52.434Z,4.93
2023-04-09T11:40:21.578Z,3.97
2023-04-09T11:42:50.938Z,4.43
2023-04-09T11:45:19.796Z,6.03
2023-04-09T11:47:47.447Z,3.67
2023-04-09T11:50:16.834Z,3.83
2023-04-09T11:52:45.597Z,4.95
2023-04-09T11:55:22.982Z,4.80
2023-04-09T11:57:52.153Z,4.88
2023-04-09T12:00:20.404Z,6.60
2023-04-09T12:02:49.389Z,5.20
2023-04-09T12:05:24.869Z,5.32
2023-04-09T12:07:57.222Z,4.47
2023-04-09T12:10:28.293Z,4.57
2023-04-09T12:12:56.409Z,4.85
2023-04-09T12:15:25.495Z,6.00
2023-04-09T12:17:55.463Z,5.50
2023-04-09T12:20:32.432Z,5.22
2023-04-09T12:23:01.397Z,4.60
2023-04-09T12:25:29.032Z,4.95
2023-04-09T12:27:57.014Z,4.78
2023-04-09T12:30:24.570Z,5.22
2023-04-09T12:32:52.982Z,3.53
2023-04-09T12:35:21.367Z,4.68
2023-04-09T12:37:50.530Z,5.03
2023-04-09T12:40:20.725Z,3.70
2023-04-09T12:42:48.491Z,5.00
2023-04-09T12:45:17.679Z,4.72
2023-04-09T12:47:45.601Z,3.75
2023-04-09T12:50:15.100Z,4.38
2023-04-09T12:52:43.167Z,4.32
2023-04-09T12:55:13.136Z,4.03
2023-04-09T12:57:47.354Z,4.68
2023-04-09T13:00:16.047Z,6.13
2023-04-09T13:02:43.494Z,4.60
2023-04-09T13:05:11.110Z,4.47
2023-04-09T13:07:39.080Z,4.68
2023-04-09T13:10:08.486Z,5.20
2023-04-09T13:12:37.517Z,5.13
2023-04-09T13:15:05.934Z,3.75
2023-04-09T13:17:33.280Z,4.95
2023-04-09T13:20:01.650Z,4.60
2023-04-09T13:22:31.115Z,3.42
2023-04-09T13:24:58.600Z,3.22
2023-04-09T13:27:26.045Z,2.72
2023-04-09T13:29:54.866Z,4.90
2023-04-09T13:32:23.461Z,5.55
2023-04-09T13:34:51.381Z,3.90
2023-04-09T13:37:18.628Z,4.45
2023-04-09T13:39:46.692Z,3.63
2023-04-09T13:42:14.532Z,4.55
2023-04-09T13:44:44.988Z,3.90
2023-04-09T13:47:16.061Z,3.47
2023-04-09T13:49:43.886Z,3.08
2023-04-09T13:52:11.942Z,4.22
2023-04-09T13:54:39.332Z,3.58
2023-04-09T13:57:06.627Z,4.10
2023-04-09T13:59:33.954Z,3.42
2023-04-09T14:02:01.459Z,3.85
2023-04-09T14:04:30.575Z,3.67
2023-04-09T14:06:57.924Z,4.43
2023-04-09T14:09:25.278Z,4.10
2023-04-09T14:11:56.203Z,4.28
2023-04-09T14:14:23.472Z,4.25
2023-04-09T14:16:50.710Z,3.70
2023-04-09T14:19:18.123Z,4.18
2023-04-09T14:21:46.773Z,4.47
2023-04-09T14:24:13.971Z,3.78
2023-04-09T14:26:41.384Z,4.88
2023-04-09T14:29:08.590Z,4.32
2023-04-09T14:31:36.017Z,4.35
2023-04-09T14:34:03.558Z,4.63
2023-04-09T14:36:31.800Z,5.30
2023-04-09T14:39:00.997Z,4.25
2023-04-09T14:41:28.585Z,3.97
2023-04-09T14:43:55.816Z,4.47
2023-04-09T14:46:23.208Z,3.88
2023-04-09T14:48:51.053Z,4.68
2023-04-09T14:51:18.554Z,4.90
2023-04-09T14:53:45.871Z,4.80
2023-04-09T14:56:14.570Z,4.38
2023-04-09T14:58:41.992Z,5.05
2023-04-09T15:01:09.334Z,4.38
2023-04-09T15:03:36.919Z,4.45
2023-04-09T15:06:04.765Z,3.65
2023-04-09T15:08:32.055Z,5.95
2023-04-09T15:10:59.432Z,6.57
2023-04-09T15:13:28.199Z,4.45
2023-04-09T15:15:55.865Z,4.10
2023-04-09T15:18:23.177Z,4.85
2023-04-09T15:20:51.387Z,4.00
2023-04-09T15:23:18.553Z,4.13
2023-04-09T15:25:46.125Z,4.38
2023-04-09T15:28:14.635Z,4.70
2023-04-09T15:30:43.917Z,4.32
2023-04-09T15:33:12.380Z,4.68
2023-04-09T15:35:39.873Z,3.72
2023-04-09T15:38:07.364Z,4.10
2023-04-09T15:40:34.838Z,4.20
2023-04-09T15:43:02.230Z,4.43
2023-04-09T15:45:29.768Z,4.63
2023-04-09T15:47:58.605Z,6.88
2023-04-09T15:50:26.250Z,6.53
2023-04-09T15:52:55.203Z,5.82
2023-04-09T15:55:23.582Z,7.30
2023-04-09T15:57:50.738Z,7.25
2023-04-09T16:00:21.084Z,8.55
2023-04-09T16:02:48.440Z,8.02
2023-04-09T16:05:17.178Z,8.15
2023-04-09T16:07:44.667Z,8.32
2023-04-09T16:10:12.180Z,9.23
2023-04-09T16:12:39.690Z,9.30
2023-04-09T16:15:08.250Z,9.45
2023-04-09T16:17:40.987Z,8.15
2023-04-09T16:20:09.261Z,9.77
2023-04-09T16:22:38.417Z,7.13
2023-04-09T16:25:06.683Z,7.95
2023-04-09T16:27:34.055Z,7.05
2023-04-09T16:30:01.953Z,7.20
2023-04-09T16:32:31.231Z,6.80
2023-04-09T16:35:00.831Z,6.93
2023-04-09T16:37:29.401Z,7.35
2023-04-09T16:39:58.258Z,7.22
2023-04-09T16:42:27.496Z,6.82
2023-04-09T16:44:54.741Z,7.43
2023-04-09T16:47:22.052Z,6.60
2023-04-09T16:49:49.477Z,7.38
2023-04-09T16:52:16.930Z,7.18
2023-04-09T16:54:44.166Z,7.30
2023-04-09T16:57:12.862Z,7.57
2023-04-09T16:59:42.613Z,6.35
2023-04-09T17:02:10.095Z,8.48
2023-04-09T17:04:38.304Z,8.23
2023-04-09T17:07:05.643Z,7.32
2023-04-09T17:09:33.067Z,7.80
2023-04-09T17:12:01.133Z,8.20
2023-04-09T17:14:29.961Z,7.30
2023-04-09T17:16:57.482Z,8.40
2023-04-09T17:19:25.156Z,6.22
2023-04-09T17:21:52.699Z,6.82
2023-04-09T17:24:19.854Z,7.22
2023-04-09T17:26:47.110Z,7.35
2023-04-09T17:29:14.314Z,7.40
2023-04-09T17:31:43.152Z,7.57
2023-04-09T17:34:11.736Z,6.90
2023-04-09T17:36:39.079Z,7.47
2023-04-09T17:39:06.544Z,8.48
2023-04-09T17:41:33.846Z,8.43
2023-04-09T17:44:01.229Z,9.05
2023-04-09T17:46:29.060Z,9.90
2023-04-09T17:48:57.668Z,9.70
2023-04-09T17:51:24.865Z,9.43
2023-04-09T17:53:53.880Z,10.23
2023-04-09T17:56:22.854Z,9.63
2023-04-09T17:58:50.226Z,9.85
2023-04-09T18:01:17.615Z,10.13
2023-04-09T18:03:48.664Z,10.77
2023-04-09T18:06:18.011Z,9.10
2023-04-09T18:08:45.259Z,7.53
2023-04-09T18:11:15.555Z,9.50
2023-04-09T18:13:42.837Z,8.60
2023-04-09T18:16:10.774Z,8.68
2023-04-09T18:18:38.557Z,8.35
2023-04-09T18:21:06.483Z,8.82
2023-04-09T18:23:35.493Z,7.32
2023-04-09T18:26:03.124Z,6.88
2023-04-09T18:28:30.788Z,8.95
2023-04-09T18:30:58.904Z,6.70
2023-04-09T18:33:27.170Z,7.55
2023-04-09T18:35:54.589Z,6.05
2023-04-09T18:38:21.930Z,6.97
2023-04-09T18:40:51.104Z,7.03
2023-04-09T18:43:18.641Z,7.30
2023-04-09T18:45:46.003Z,6.78
2023-04-09T18:48:13.320Z,6.95
2023-04-09T18:50:40.659Z,6.82
2023-04-09T18:53:08.028Z,7.68
2023-04-09T18:55:38.405Z,7.55
2023-04-09T18:58:13.067Z,8.13
2023-04-09T19:00:40.614Z,7.30
2023-04-09T19:03:08.821Z,7.65
2023-04-09T19:05:36.452Z,7.32
2023-04-09T19:08:06.906Z,6.63
2023-04-09T19:10:34.195Z,6.13
2023-04-09T19:13:01.554Z,5.35
2023-04-09T19:15:30.598Z,6.30
2023-04-09T19:17:58.060Z,2.97
2023-04-09T19:20:25.539Z,6.75
2023-04-09T19:22:54.630Z,5.68
2023-04-09T19:25:23.017Z,5.85
2023-04-09T19:27:50.533Z,5.20
2023-04-09T19:30:17.964Z,6.47
2023-04-09T19:32:46.844Z,6.10
2023-04-09T19:35:14.122Z,6.75
2023-04-09T19:37:45.035Z,6.43
2023-04-09T19:40:12.660Z,9.20
2023-04-09T19:42:40.131Z,8.98
2023-04-09T19:45:08.815Z,8.20
2023-04-09T19:47:38.221Z,8.35
2023-04-09T19:50:07.741Z,8.93
2023-04-09T19:52:35.016Z,8.95
2023-04-09T19:55:03.086Z,7.25
2023-04-09T19:57:31.930Z,5.97
2023-04-09T19:59:59.243Z,7.28
2023-04-09T20:02:26.596Z,7.45
2023-04-09T20:04:54.653Z,7.18
2023-04-09T20:07:23.505Z,6.80
2023-04-09T20:09:50.990Z,9.95
2023-04-09T20:12:21.140Z,10.73
2023-04-09T20:14:50.095Z,10.77
2023-04-09T20:17:19.957Z,11.32
2023-04-09T20:19:47.680Z,12.93
2023-04-09T20:22:15.143Z,10.30
2023-04-09T20:24:44.054Z,10.05
2023-04-09T20:27:11.449Z,10.02
2023-04-09T20:29:38.984Z,9.75
2023-04-09T20:32:06.635Z,8.73
2023-04-09T20:34:34.200Z,8.13
2023-04-09T20:37:01.837Z,8.32
2023-04-09T20:39:30.612Z,7.70
2023-04-09T20:41:59.306Z,8.30
2023-04-09T20:44:27.759Z,8.98
2023-04-09T20:46:55.585Z,7.28
2023-04-09T20:49:22.825Z,7.72
2023-04-09T20:51:50.195Z,8.50
2023-04-09T20:54:18.146Z,8.18
2023-04-09T20:56:45.563Z,7.45
2023-04-09T20:59:15.680Z,8.35
2023-04-09T21:01:43.225Z,8.18
2023-04-09T21:04:12.084Z,6.82
2023-04-09T21:06:40.466Z,7.00
2023-04-09T21:09:08.102Z,7.30
2023-04-09T21:11:35.409Z,7.07
2023-04-09T21:14:03.166Z,7.47
2023-04-09T21:16:31.896Z,6.72
2023-04-09T21:18:59.324Z,6.93
2023-04-09T21:21:28.590Z,7.43
2023-04-09T21:23:56.111Z,6.70
2023-04-09T21:26:25.104Z,7.07
2023-04-09T21:28:52.776Z,6.88
2023-04-09T21:31:21.208Z,6.80
2023-04-09T21:33:50.154Z,6.68
2023-04-09T21:36:17.624Z,5.63
2023-04-09T21:38:44.901Z,6.32
2023-04-09T21:41:12.389Z,5.75
2023-04-09T21:43:39.955Z,7.57
2023-04-09T21:46:07.787Z,5.03
2023-04-09T21:48:35.206Z,6.32
2023-04-09T21:51:04.182Z,6.75
2023-04-09T21:53:31.677Z,6.22
2023-04-09T21:55:59.006Z,7.25
2023-04-09T21:58:26.303Z,6.18
2023-04-09T22:00:53.577Z,6.15
2023-04-09T22:03:21.276Z,6.30
2023-04-09T22:05:48.874Z,6.43
2023-04-09T22:08:18.719Z,6.93
2023-04-09T22:10:46.511Z,6.80
2023-04-09T22:13:13.779Z,5.45
2023-04-09T22:15:41.972Z,6.57
2023-04-09T22:18:09.241Z,6.25
2023-04-09T22:20:36.976Z,6.95
2023-04-09T22:23:04.365Z,6.03
2023-04-09T22:25:35.221Z,5.13
2023-04-09T22:28:02.747Z,5.20
2023-04-09T22:30:30.231Z,4.97
2023-04-09T22:32:57.808Z,5.78
2023-04-09T22:35:25.212Z,5.95
2023-04-09T22:37:52.936Z,6.32
2023-04-09T22:40:20.233Z,5.55
2023-04-09T22:42:49.143Z,4.95
2023-04-09T22:45:16.415Z,5.32
2023-04-09T22:47:43.979Z,5.60
2023-04-09T22:50:13.587Z,5.95
2023-04-09T22:52:41.032Z,5.32
2023-04-09T22:55:10.279Z,4.93
2023-04-09T22:57:38.512Z,5.40
2023-04-09T23:00:09.196Z,5.18
2023-04-09T23:02:37.156Z,6.47
2023-04-09T23:05:05.286Z,5.32
2023-04-09T23:07:32.708Z,5.22
2023-04-09T23:10:00.612Z,5.03
2023-04-09T23:12:27.931Z,5.40
2023-04-09T23:14:55.254Z,5.18
2023-04-09T23:17:24.660Z,5.43
2023-04-09T23:19:54.718Z,5.15
2023-04-09T23:22:22.183Z,5.88
2023-04-09T23:24:49.620Z,5.43
2023-04-09T23:27:16.990Z,5.63
2023-04-09T23:29:44.417Z,5.05
2023-04-09T23:32:11.629Z,4.72
2023-04-09T23:34:40.357Z,5.30
2023-04-09T23:37:08.164Z,5.82
2023-04-09T23:39:35.489Z,5.97
2023-04-09T23:42:03.218Z,5.35
2023-04-09T23:44:30.780Z,5.03
2023-04-09T23:46:59.467Z,4.90
2023-04-09T23:49:27.488Z,5.55
2023-04-09T23:51:56.128Z,4.05
2023-04-09T23:54:23.683Z,5.30
2023-04-09T23:56:50.966Z,5.22
2023-04-09T23:59:18.409Z,4.63
